Current Weather

Porter County Rgnl

Valparaiso, Indiana (KVPZ)

Report from: Thursday, August 18, 2022 10:56 PM CDT
Current time: Thursday, August 18, 2022 11:51 PM CDT

Nearby weather
Weather history
Weather forecast

Temperature18.9°C (66.0°F)
Dew point14.4°C (57.9°F)
Winds Calm
Visibility10 mi. (16.1 km)
Clouds Sky clear
Altimeter29.97 in.Hg (1015 mB)
Relative humidity75 %
Density altitude629 ft. (192 m)
Sea-level pressure101.5 kPa (1015 mB, 29.96 in.Hg)
Remarks Fully automated report
Automated weather observing station with precipitation discriminator
Flight conditions Visual Meteorological Conditions
Raw dataKVPZ 190356Z AUTO 00000KT 10SM CLR 19/14 A2997 RMK AO2 SLP146 T01890144
An unhandled exception has occurred. See browser dev tools for details. Reload 🗙